sensor_id;sensor_type;location;lat;lon;timestamp;P1;durP1;ratioP1;P2;durP2;ratioP2
18445;SDS011;9352;50.888;4.466;2023-05-18T00:00:17;15.32;;;4.13;;
18445;SDS011;9352;50.888;4.466;2023-05-18T00:02:45;15.98;;;4.40;;
18445;SDS011;9352;50.888;4.466;2023-05-18T00:05:13;12.95;;;3.45;;
18445;SDS011;9352;50.888;4.466;2023-05-18T00:07:42;11.73;;;3.38;;
18445;SDS011;9352;50.888;4.466;2023-05-18T00:10:09;12.55;;;3.25;;
18445;SDS011;9352;50.888;4.466;2023-05-18T00:12:37;19.30;;;3.30;;
18445;SDS011;9352;50.888;4.466;2023-05-18T00:15:05;17.35;;;3.55;;
18445;SDS011;9352;50.888;4.466;2023-05-18T00:17:34;13.95;;;3.10;;
18445;SDS011;9352;50.888;4.466;2023-05-18T00:20:01;10.50;;;3.25;;
18445;SDS011;9352;50.888;4.466;2023-05-18T00:22:29;15.88;;;3.67;;
18445;SDS011;9352;50.888;4.466;2023-05-18T00:24:56;15.65;;;3.75;;
18445;SDS011;9352;50.888;4.466;2023-05-18T00:27:23;12.50;;;3.38;;
18445;SDS011;9352;50.888;4.466;2023-05-18T00:29:51;10.50;;;3.30;;
18445;SDS011;9352;50.888;4.466;2023-05-18T00:32:18;19.90;;;3.55;;
18445;SDS011;9352;50.888;4.466;2023-05-18T00:34:45;13.70;;;3.55;;
18445;SDS011;9352;50.888;4.466;2023-05-18T00:37:12;14.98;;;3.35;;
18445;SDS011;9352;50.888;4.466;2023-05-18T00:39:38;13.20;;;3.35;;
18445;SDS011;9352;50.888;4.466;2023-05-18T00:42:05;16.63;;;3.45;;
18445;SDS011;9352;50.888;4.466;2023-05-18T00:44:32;18.13;;;3.80;;
18445;SDS011;9352;50.888;4.466;2023-05-18T00:47:01;12.65;;;3.45;;
18445;SDS011;9352;50.888;4.466;2023-05-18T00:49:27;13.38;;;3.40;;
18445;SDS011;9352;50.888;4.466;2023-05-18T00:51:54;20.20;;;3.63;;
18445;SDS011;9352;50.888;4.466;2023-05-18T00:54:22;13.60;;;3.85;;
18445;SDS011;9352;50.888;4.466;2023-05-18T00:56:50;20.67;;;3.78;;
18445;SDS011;9352;50.888;4.466;2023-05-18T00:59:16;13.38;;;3.83;;
18445;SDS011;9352;50.888;4.466;2023-05-18T01:01:44;16.40;;;3.30;;
18445;SDS011;9352;50.888;4.466;2023-05-18T01:04:14;17.42;;;3.45;;
18445;SDS011;9352;50.888;4.466;2023-05-18T01:06:41;11.80;;;3.30;;
18445;SDS011;9352;50.888;4.466;2023-05-18T01:09:10;10.18;;;3.60;;
18445;SDS011;9352;50.888;4.466;2023-05-18T01:11:41;13.40;;;3.45;;
18445;SDS011;9352;50.888;4.466;2023-05-18T01:14:18;10.40;;;3.45;;
18445;SDS011;9352;50.888;4.466;2023-05-18T01:16:52;10.18;;;3.42;;
18445;SDS011;9352;50.888;4.466;2023-05-18T01:22:28;12.25;;;3.47;;
18445;SDS011;9352;50.888;4.466;2023-05-18T01:25:03;15.13;;;3.67;;
18445;SDS011;9352;50.888;4.466;2023-05-18T01:27:40;19.05;;;4.10;;
18445;SDS011;9352;50.888;4.466;2023-05-18T01:30:10;10.80;;;3.47;;
18445;SDS011;9352;50.888;4.466;2023-05-18T01:32:40;12.98;;;3.90;;
18445;SDS011;9352;50.888;4.466;2023-05-18T01:35:10;11.27;;;3.90;;
18445;SDS011;9352;50.888;4.466;2023-05-18T01:37:37;8.65;;;3.35;;
18445;SDS011;9352;50.888;4.466;2023-05-18T01:40:04;15.27;;;4.20;;
18445;SDS011;9352;50.888;4.466;2023-05-18T01:42:35;8.02;;;3.50;;
18445;SDS011;9352;50.888;4.466;2023-05-18T01:45:08;11.95;;;4.10;;
18445;SDS011;9352;50.888;4.466;2023-05-18T01:47:41;15.23;;;3.85;;
18445;SDS011;9352;50.888;4.466;2023-05-18T01:50:12;14.40;;;3.67;;
18445;SDS011;9352;50.888;4.466;2023-05-18T01:52:41;18.08;;;4.07;;
18445;SDS011;9352;50.888;4.466;2023-05-18T01:55:11;10.60;;;3.70;;
18445;SDS011;9352;50.888;4.466;2023-05-18T01:57:43;10.13;;;3.60;;
18445;SDS011;9352;50.888;4.466;2023-05-18T02:00:13;10.85;;;4.25;;
18445;SDS011;9352;50.888;4.466;2023-05-18T02:02:41;16.63;;;3.60;;
18445;SDS011;9352;50.888;4.466;2023-05-18T02:05:08;13.27;;;3.97;;
18445;SDS011;9352;50.888;4.466;2023-05-18T02:07:36;16.10;;;3.88;;
18445;SDS011;9352;50.888;4.466;2023-05-18T02:10:03;15.40;;;3.55;;
18445;SDS011;9352;50.888;4.466;2023-05-18T02:12:31;9.60;;;3.47;;
18445;SDS011;9352;50.888;4.466;2023-05-18T02:14:58;13.48;;;3.90;;
18445;SDS011;9352;50.888;4.466;2023-05-18T02:17:30;17.80;;;4.15;;
18445;SDS011;9352;50.888;4.466;2023-05-18T02:19:57;17.67;;;3.60;;
18445;SDS011;9352;50.888;4.466;2023-05-18T02:22:24;14.93;;;4.05;;
18445;SDS011;9352;50.888;4.466;2023-05-18T02:24:51;10.90;;;3.65;;
18445;SDS011;9352;50.888;4.466;2023-05-18T02:27:18;14.55;;;4.20;;
18445;SDS011;9352;50.888;4.466;2023-05-18T02:29:45;14.52;;;4.13;;
18445;SDS011;9352;50.888;4.466;2023-05-18T02:32:12;13.85;;;3.75;;
18445;SDS011;9352;50.888;4.466;2023-05-18T02:34:40;13.20;;;4.10;;
18445;SDS011;9352;50.888;4.466;2023-05-18T02:37:07;17.27;;;4.38;;
18445;SDS011;9352;50.888;4.466;2023-05-18T02:39:34;15.35;;;3.72;;
18445;SDS011;9352;50.888;4.466;2023-05-18T02:42:01;12.85;;;4.10;;
18445;SDS011;9352;50.888;4.466;2023-05-18T02:44:28;10.18;;;3.88;;
18445;SDS011;9352;50.888;4.466;2023-05-18T02:46:55;10.00;;;4.22;;
18445;SDS011;9352;50.888;4.466;2023-05-18T02:49:22;14.77;;;4.13;;
18445;SDS011;9352;50.888;4.466;2023-05-18T02:51:51;20.90;;;4.10;;
18445;SDS011;9352;50.888;4.466;2023-05-18T02:54:17;7.22;;;4.18;;
18445;SDS011;9352;50.888;4.466;2023-05-18T02:56:45;14.40;;;4.03;;
18445;SDS011;9352;50.888;4.466;2023-05-18T02:59:13;13.35;;;4.18;;
18445;SDS011;9352;50.888;4.466;2023-05-18T03:01:40;14.32;;;4.35;;
18445;SDS011;9352;50.888;4.466;2023-05-18T03:04:07;10.65;;;4.10;;
18445;SDS011;9352;50.888;4.466;2023-05-18T03:06:33;15.02;;;4.30;;
18445;SDS011;9352;50.888;4.466;2023-05-18T03:09:03;15.15;;;4.45;;
18445;SDS011;9352;50.888;4.466;2023-05-18T03:11:30;13.13;;;4.15;;
18445;SDS011;9352;50.888;4.466;2023-05-18T03:13:57;22.33;;;4.82;;
18445;SDS011;9352;50.888;4.466;2023-05-18T03:16:24;14.93;;;4.57;;
18445;SDS011;9352;50.888;4.466;2023-05-18T03:18:52;10.23;;;4.10;;
18445;SDS011;9352;50.888;4.466;2023-05-18T03:21:19;10.77;;;4.03;;
18445;SDS011;9352;50.888;4.466;2023-05-18T03:23:48;25.45;;;4.30;;
18445;SDS011;9352;50.888;4.466;2023-05-18T03:26:16;10.60;;;4.22;;
18445;SDS011;9352;50.888;4.466;2023-05-18T03:28:43;9.43;;;4.30;;
18445;SDS011;9352;50.888;4.466;2023-05-18T03:31:10;8.85;;;4.20;;
18445;SDS011;9352;50.888;4.466;2023-05-18T03:33:36;11.30;;;4.20;;
18445;SDS011;9352;50.888;4.466;2023-05-18T03:36:04;14.85;;;4.55;;
18445;SDS011;9352;50.888;4.466;2023-05-18T03:38:31;9.02;;;4.65;;
18445;SDS011;9352;50.888;4.466;2023-05-18T03:40:58;20.88;;;5.35;;
18445;SDS011;9352;50.888;4.466;2023-05-18T03:43:26;20.73;;;4.25;;
18445;SDS011;9352;50.888;4.466;2023-05-18T03:45:56;13.07;;;4.40;;
18445;SDS011;9352;50.888;4.466;2023-05-18T03:48:23;13.32;;;4.40;;
18445;SDS011;9352;50.888;4.466;2023-05-18T03:50:50;17.30;;;4.70;;
18445;SDS011;9352;50.888;4.466;2023-05-18T03:53:17;11.07;;;4.05;;
18445;SDS011;9352;50.888;4.466;2023-05-18T03:55:45;12.00;;;4.15;;
18445;SDS011;9352;50.888;4.466;2023-05-18T03:58:14;18.40;;;4.68;;
18445;SDS011;9352;50.888;4.466;2023-05-18T04:00:42;5.90;;;4.30;;
18445;SDS011;9352;50.888;4.466;2023-05-18T04:03:09;14.77;;;4.65;;
18445;SDS011;9352;50.888;4.466;2023-05-18T04:05:38;13.10;;;4.53;;
18445;SDS011;9352;50.888;4.466;2023-05-18T04:08:07;14.48;;;4.50;;
18445;SDS011;9352;50.888;4.466;2023-05-18T04:10:38;11.63;;;4.38;;
18445;SDS011;9352;50.888;4.466;2023-05-18T04:13:06;13.40;;;4.15;;
18445;SDS011;9352;50.888;4.466;2023-05-18T04:15:33;17.65;;;5.00;;
18445;SDS011;9352;50.888;4.466;2023-05-18T04:18:01;8.93;;;4.45;;
18445;SDS011;9352;50.888;4.466;2023-05-18T04:20:28;18.33;;;4.55;;
18445;SDS011;9352;50.888;4.466;2023-05-18T04:22:55;16.10;;;5.03;;
18445;SDS011;9352;50.888;4.466;2023-05-18T04:25:22;25.15;;;5.13;;
18445;SDS011;9352;50.888;4.466;2023-05-18T04:27:51;11.18;;;4.28;;
18445;SDS011;9352;50.888;4.466;2023-05-18T04:30:19;13.05;;;4.80;;
18445;SDS011;9352;50.888;4.466;2023-05-18T04:32:47;11.75;;;4.65;;
18445;SDS011;9352;50.888;4.466;2023-05-18T04:35:16;19.98;;;4.43;;
18445;SDS011;9352;50.888;4.466;2023-05-18T04:37:43;12.43;;;4.53;;
18445;SDS011;9352;50.888;4.466;2023-05-18T04:40:10;12.13;;;4.75;;
18445;SDS011;9352;50.888;4.466;2023-05-18T04:42:38;17.73;;;5.32;;
18445;SDS011;9352;50.888;4.466;2023-05-18T04:45:09;22.33;;;4.90;;
18445;SDS011;9352;50.888;4.466;2023-05-18T04:47:40;14.82;;;4.75;;
18445;SDS011;9352;50.888;4.466;2023-05-18T04:50:10;7.47;;;4.35;;
18445;SDS011;9352;50.888;4.466;2023-05-18T04:52:40;10.75;;;4.82;;
18445;SDS011;9352;50.888;4.466;2023-05-18T04:55:13;14.95;;;5.18;;
18445;SDS011;9352;50.888;4.466;2023-05-18T04:57:40;9.70;;;4.18;;
18445;SDS011;9352;50.888;4.466;2023-05-18T05:00:09;11.48;;;4.32;;
18445;SDS011;9352;50.888;4.466;2023-05-18T05:02:36;12.35;;;4.45;;
18445;SDS011;9352;50.888;4.466;2023-05-18T05:05:04;24.20;;;5.20;;
18445;SDS011;9352;50.888;4.466;2023-05-18T05:07:31;13.63;;;4.35;;
18445;SDS011;9352;50.888;4.466;2023-05-18T05:09:59;18.48;;;4.82;;
18445;SDS011;9352;50.888;4.466;2023-05-18T05:12:26;10.70;;;5.13;;
18445;SDS011;9352;50.888;4.466;2023-05-18T05:14:53;14.90;;;5.10;;
18445;SDS011;9352;50.888;4.466;2023-05-18T05:17:21;10.85;;;4.95;;
18445;SDS011;9352;50.888;4.466;2023-05-18T05:19:48;17.17;;;5.07;;
18445;SDS011;9352;50.888;4.466;2023-05-18T05:22:15;10.75;;;4.95;;
18445;SDS011;9352;50.888;4.466;2023-05-18T05:24:43;13.35;;;5.00;;
18445;SDS011;9352;50.888;4.466;2023-05-18T05:27:12;13.32;;;4.55;;
18445;SDS011;9352;50.888;4.466;2023-05-18T05:29:38;19.17;;;5.00;;
18445;SDS011;9352;50.888;4.466;2023-05-18T05:32:07;9.18;;;4.57;;
18445;SDS011;9352;50.888;4.466;2023-05-18T05:34:34;15.18;;;5.07;;
18445;SDS011;9352;50.888;4.466;2023-05-18T05:37:01;16.35;;;4.82;;
18445;SDS011;9352;50.888;4.466;2023-05-18T05:39:28;19.00;;;5.55;;
18445;SDS011;9352;50.888;4.466;2023-05-18T05:41:55;13.32;;;4.65;;
18445;SDS011;9352;50.888;4.466;2023-05-18T05:44:23;12.40;;;5.05;;
18445;SDS011;9352;50.888;4.466;2023-05-18T05:46:50;14.50;;;4.70;;
18445;SDS011;9352;50.888;4.466;2023-05-18T05:49:17;24.33;;;5.13;;
18445;SDS011;9352;50.888;4.466;2023-05-18T05:51:44;9.68;;;4.47;;
18445;SDS011;9352;50.888;4.466;2023-05-18T05:54:11;13.38;;;4.75;;
18445;SDS011;9352;50.888;4.466;2023-05-18T05:56:38;12.25;;;5.22;;
18445;SDS011;9352;50.888;4.466;2023-05-18T05:59:04;15.65;;;4.80;;
18445;SDS011;9352;50.888;4.466;2023-05-18T06:01:33;18.95;;;4.95;;
18445;SDS011;9352;50.888;4.466;2023-05-18T06:04:00;19.42;;;4.88;;
18445;SDS011;9352;50.888;4.466;2023-05-18T06:06:28;21.38;;;5.00;;
18445;SDS011;9352;50.888;4.466;2023-05-18T06:08:55;10.80;;;4.70;;
18445;SDS011;9352;50.888;4.466;2023-05-18T06:11:22;13.30;;;4.95;;
18445;SDS011;9352;50.888;4.466;2023-05-18T06:13:49;12.48;;;5.00;;
18445;SDS011;9352;50.888;4.466;2023-05-18T06:16:17;22.80;;;5.47;;
18445;SDS011;9352;50.888;4.466;2023-05-18T06:18:45;21.80;;;5.45;;
18445;SDS011;9352;50.888;4.466;2023-05-18T06:21:13;15.57;;;5.00;;
18445;SDS011;9352;50.888;4.466;2023-05-18T06:23:40;15.75;;;5.10;;
18445;SDS011;9352;50.888;4.466;2023-05-18T06:26:06;10.75;;;4.93;;
18445;SDS011;9352;50.888;4.466;2023-05-18T06:28:34;13.80;;;4.95;;
18445;SDS011;9352;50.888;4.466;2023-05-18T06:31:00;12.50;;;4.95;;
18445;SDS011;9352;50.888;4.466;2023-05-18T06:33:27;19.17;;;4.88;;
18445;SDS011;9352;50.888;4.466;2023-05-18T06:35:56;17.33;;;5.40;;
18445;SDS011;9352;50.888;4.466;2023-05-18T06:38:23;16.05;;;5.60;;
18445;SDS011;9352;50.888;4.466;2023-05-18T06:40:50;12.70;;;5.10;;
18445;SDS011;9352;50.888;4.466;2023-05-18T06:43:17;12.77;;;5.22;;
18445;SDS011;9352;50.888;4.466;2023-05-18T06:45:44;13.43;;;5.22;;
18445;SDS011;9352;50.888;4.466;2023-05-18T06:48:11;10.50;;;4.88;;
18445;SDS011;9352;50.888;4.466;2023-05-18T06:50:38;15.85;;;5.13;;
18445;SDS011;9352;50.888;4.466;2023-05-18T06:53:06;17.30;;;5.75;;
18445;SDS011;9352;50.888;4.466;2023-05-18T06:55:33;18.15;;;5.15;;
18445;SDS011;9352;50.888;4.466;2023-05-18T06:58:00;19.65;;;5.07;;
18445;SDS011;9352;50.888;4.466;2023-05-18T07:00:27;17.05;;;5.15;;
18445;SDS011;9352;50.888;4.466;2023-05-18T07:02:54;17.45;;;5.85;;
18445;SDS011;9352;50.888;4.466;2023-05-18T07:05:21;22.20;;;5.07;;
18445;SDS011;9352;50.888;4.466;2023-05-18T07:07:48;16.75;;;5.63;;
18445;SDS011;9352;50.888;4.466;2023-05-18T07:10:17;16.65;;;5.10;;
18445;SDS011;9352;50.888;4.466;2023-05-18T07:12:43;20.45;;;5.30;;
18445;SDS011;9352;50.888;4.466;2023-05-18T07:15:10;11.77;;;5.50;;
18445;SDS011;9352;50.888;4.466;2023-05-18T07:17:37;15.95;;;5.80;;
18445;SDS011;9352;50.888;4.466;2023-05-18T07:20:05;22.17;;;5.90;;
18445;SDS011;9352;50.888;4.466;2023-05-18T07:22:32;18.20;;;5.60;;
18445;SDS011;9352;50.888;4.466;2023-05-18T07:24:59;18.90;;;5.70;;
18445;SDS011;9352;50.888;4.466;2023-05-18T07:27:28;14.32;;;5.72;;
18445;SDS011;9352;50.888;4.466;2023-05-18T07:29:55;10.93;;;5.40;;
18445;SDS011;9352;50.888;4.466;2023-05-18T07:32:22;19.70;;;5.57;;
18445;SDS011;9352;50.888;4.466;2023-05-18T07:34:49;15.35;;;5.45;;
18445;SDS011;9352;50.888;4.466;2023-05-18T07:37:16;15.93;;;5.90;;
18445;SDS011;9352;50.888;4.466;2023-05-18T07:39:42;20.65;;;5.72;;
18445;SDS011;9352;50.888;4.466;2023-05-18T07:42:09;15.80;;;5.75;;
18445;SDS011;9352;50.888;4.466;2023-05-18T07:44:38;19.48;;;6.10;;
18445;SDS011;9352;50.888;4.466;2023-05-18T07:47:05;13.95;;;5.50;;
18445;SDS011;9352;50.888;4.466;2023-05-18T07:49:32;18.67;;;6.13;;
18445;SDS011;9352;50.888;4.466;2023-05-18T07:51:58;15.40;;;5.57;;
18445;SDS011;9352;50.888;4.466;2023-05-18T07:54:26;15.43;;;5.60;;
18445;SDS011;9352;50.888;4.466;2023-05-18T07:56:53;16.52;;;6.13;;
18445;SDS011;9352;50.888;4.466;2023-05-18T07:59:20;14.50;;;5.45;;
18445;SDS011;9352;50.888;4.466;2023-05-18T08:01:48;17.23;;;6.15;;
18445;SDS011;9352;50.888;4.466;2023-05-18T08:04:15;15.60;;;5.90;;
18445;SDS011;9352;50.888;4.466;2023-05-18T08:06:42;20.52;;;6.35;;
18445;SDS011;9352;50.888;4.466;2023-05-18T08:09:09;13.95;;;5.60;;
18445;SDS011;9352;50.888;4.466;2023-05-18T08:11:36;15.90;;;5.57;;
18445;SDS011;9352;50.888;4.466;2023-05-18T08:14:03;17.15;;;5.82;;
18445;SDS011;9352;50.888;4.466;2023-05-18T08:16:30;17.70;;;5.88;;
18445;SDS011;9352;50.888;4.466;2023-05-18T08:19:02;10.95;;;5.20;;
18445;SDS011;9352;50.888;4.466;2023-05-18T08:21:29;18.50;;;5.47;;
18445;SDS011;9352;50.888;4.466;2023-05-18T08:23:57;14.00;;;5.85;;
18445;SDS011;9352;50.888;4.466;2023-05-18T08:26:24;15.82;;;5.55;;
18445;SDS011;9352;50.888;4.466;2023-05-18T08:28:51;13.23;;;5.25;;
18445;SDS011;9352;50.888;4.466;2023-05-18T08:31:19;11.35;;;5.45;;
18445;SDS011;9352;50.888;4.466;2023-05-18T08:33:46;13.95;;;5.90;;
18445;SDS011;9352;50.888;4.466;2023-05-18T08:36:15;16.75;;;5.72;;
18445;SDS011;9352;50.888;4.466;2023-05-18T08:38:42;13.80;;;5.40;;
18445;SDS011;9352;50.888;4.466;2023-05-18T08:41:11;13.80;;;5.80;;
18445;SDS011;9352;50.888;4.466;2023-05-18T08:43:44;14.70;;;5.50;;
18445;SDS011;9352;50.888;4.466;2023-05-18T08:46:16;15.38;;;5.50;;
18445;SDS011;9352;50.888;4.466;2023-05-18T08:48:46;16.13;;;5.53;;
18445;SDS011;9352;50.888;4.466;2023-05-18T08:51:17;14.15;;;6.20;;
18445;SDS011;9352;50.888;4.466;2023-05-18T08:53:46;14.25;;;4.68;;
18445;SDS011;9352;50.888;4.466;2023-05-18T08:56:17;11.35;;;5.25;;
18445;SDS011;9352;50.888;4.466;2023-05-18T08:58:47;15.68;;;4.55;;
18445;SDS011;9352;50.888;4.466;2023-05-18T09:01:16;9.85;;;4.55;;
18445;SDS011;9352;50.888;4.466;2023-05-18T09:03:43;11.70;;;4.82;;
18445;SDS011;9352;50.888;4.466;2023-05-18T09:06:13;15.45;;;5.57;;
18445;SDS011;9352;50.888;4.466;2023-05-18T09:08:42;12.80;;;5.05;;
18445;SDS011;9352;50.888;4.466;2023-05-18T09:11:10;11.88;;;4.70;;
18445;SDS011;9352;50.888;4.466;2023-05-18T09:13:38;13.25;;;5.40;;
18445;SDS011;9352;50.888;4.466;2023-05-18T09:16:05;17.30;;;4.93;;
18445;SDS011;9352;50.888;4.466;2023-05-18T09:18:32;11.80;;;5.25;;
18445;SDS011;9352;50.888;4.466;2023-05-18T09:21:00;17.08;;;4.78;;
18445;SDS011;9352;50.888;4.466;2023-05-18T09:23:27;22.88;;;5.00;;
18445;SDS011;9352;50.888;4.466;2023-05-18T09:25:55;12.10;;;4.68;;
18445;SDS011;9352;50.888;4.466;2023-05-18T09:28:24;12.40;;;4.78;;
18445;SDS011;9352;50.888;4.466;2023-05-18T09:30:52;12.57;;;4.47;;
18445;SDS011;9352;50.888;4.466;2023-05-18T09:33:19;16.67;;;4.80;;
18445;SDS011;9352;50.888;4.466;2023-05-18T09:35:47;11.82;;;4.57;;
18445;SDS011;9352;50.888;4.466;2023-05-18T09:38:16;16.55;;;4.85;;
18445;SDS011;9352;50.888;4.466;2023-05-18T09:40:46;14.93;;;5.22;;
18445;SDS011;9352;50.888;4.466;2023-05-18T09:43:16;15.35;;;4.53;;
18445;SDS011;9352;50.888;4.466;2023-05-18T09:45:44;13.85;;;4.13;;
18445;SDS011;9352;50.888;4.466;2023-05-18T09:48:13;8.45;;;3.80;;
18445;SDS011;9352;50.888;4.466;2023-05-18T09:50:41;13.85;;;4.00;;
18445;SDS011;9352;50.888;4.466;2023-05-18T09:53:09;11.88;;;4.05;;
18445;SDS011;9352;50.888;4.466;2023-05-18T09:55:43;15.18;;;3.55;;
18445;SDS011;9352;50.888;4.466;2023-05-18T09:58:11;9.15;;;3.60;;
18445;SDS011;9352;50.888;4.466;2023-05-18T10:00:41;11.38;;;4.25;;
18445;SDS011;9352;50.888;4.466;2023-05-18T10:03:15;11.13;;;4.30;;
18445;SDS011;9352;50.888;4.466;2023-05-18T10:05:43;12.82;;;3.97;;
18445;SDS011;9352;50.888;4.466;2023-05-18T10:08:12;12.30;;;3.58;;
18445;SDS011;9352;50.888;4.466;2023-05-18T10:10:41;12.40;;;3.92;;
18445;SDS011;9352;50.888;4.466;2023-05-18T10:13:11;9.88;;;3.60;;
18445;SDS011;9352;50.888;4.466;2023-05-18T10:15:49;10.15;;;3.38;;
18445;SDS011;9352;50.888;4.466;2023-05-18T10:18:20;9.30;;;3.20;;
18445;SDS011;9352;50.888;4.466;2023-05-18T10:20:48;12.10;;;4.20;;
18445;SDS011;9352;50.888;4.466;2023-05-18T10:23:17;10.02;;;3.53;;
18445;SDS011;9352;50.888;4.466;2023-05-18T10:25:45;11.80;;;3.88;;
18445;SDS011;9352;50.888;4.466;2023-05-18T10:28:16;16.23;;;4.07;;
18445;SDS011;9352;50.888;4.466;2023-05-18T10:30:50;12.25;;;3.78;;
18445;SDS011;9352;50.888;4.466;2023-05-18T10:33:18;10.55;;;3.60;;
18445;SDS011;9352;50.888;4.466;2023-05-18T10:35:47;12.88;;;3.92;;
18445;SDS011;9352;50.888;4.466;2023-05-18T10:38:16;8.93;;;3.45;;
18445;SDS011;9352;50.888;4.466;2023-05-18T10:40:45;6.60;;;3.10;;
18445;SDS011;9352;50.888;4.466;2023-05-18T10:43:14;11.38;;;4.05;;
18445;SDS011;9352;50.888;4.466;2023-05-18T10:45:44;11.40;;;3.47;;
18445;SDS011;9352;50.888;4.466;2023-05-18T10:48:14;9.43;;;3.42;;
18445;SDS011;9352;50.888;4.466;2023-05-18T10:50:42;8.95;;;3.78;;
18445;SDS011;9352;50.888;4.466;2023-05-18T10:53:10;9.95;;;3.78;;
18445;SDS011;9352;50.888;4.466;2023-05-18T10:55:39;8.60;;;3.53;;
18445;SDS011;9352;50.888;4.466;2023-05-18T10:58:06;6.50;;;3.80;;
18445;SDS011;9352;50.888;4.466;2023-05-18T11:00:38;11.82;;;3.65;;
18445;SDS011;9352;50.888;4.466;2023-05-18T11:03:07;13.70;;;3.90;;
18445;SDS011;9352;50.888;4.466;2023-05-18T11:05:38;11.50;;;3.97;;
18445;SDS011;9352;50.888;4.466;2023-05-18T11:08:06;10.07;;;3.97;;
18445;SDS011;9352;50.888;4.466;2023-05-18T11:10:33;14.75;;;4.60;;
18445;SDS011;9352;50.888;4.466;2023-05-18T11:13:05;10.23;;;3.92;;
18445;SDS011;9352;50.888;4.466;2023-05-18T11:18:33;10.18;;;4.30;;
18445;SDS011;9352;50.888;4.466;2023-05-18T11:21:02;11.13;;;4.28;;
18445;SDS011;9352;50.888;4.466;2023-05-18T11:23:30;8.93;;;3.85;;
18445;SDS011;9352;50.888;4.466;2023-05-18T11:25:58;12.80;;;4.28;;
18445;SDS011;9352;50.888;4.466;2023-05-18T11:28:27;11.40;;;4.30;;
18445;SDS011;9352;50.888;4.466;2023-05-18T11:30:54;12.40;;;4.10;;
18445;SDS011;9352;50.888;4.466;2023-05-18T11:33:22;11.07;;;3.70;;
18445;SDS011;9352;50.888;4.466;2023-05-18T11:38:49;11.70;;;3.95;;
18445;SDS011;9352;50.888;4.466;2023-05-18T11:41:27;10.52;;;3.95;;
18445;SDS011;9352;50.888;4.466;2023-05-18T11:44:13;10.75;;;3.80;;
18445;SDS011;9352;50.888;4.466;2023-05-18T11:46:49;17.02;;;4.10;;
18445;SDS011;9352;50.888;4.466;2023-05-18T11:49:18;11.15;;;3.85;;
18445;SDS011;9352;50.888;4.466;2023-05-18T11:52:01;11.30;;;3.83;;
18445;SDS011;9352;50.888;4.466;2023-05-18T11:54:33;9.40;;;4.13;;
18445;SDS011;9352;50.888;4.466;2023-05-18T11:57:03;11.02;;;4.13;;
18445;SDS011;9352;50.888;4.466;2023-05-18T11:59:31;11.55;;;4.10;;
18445;SDS011;9352;50.888;4.466;2023-05-18T12:02:00;10.00;;;4.13;;
18445;SDS011;9352;50.888;4.466;2023-05-18T12:04:28;11.68;;;4.78;;
18445;SDS011;9352;50.888;4.466;2023-05-18T12:06:56;9.63;;;4.10;;
18445;SDS011;9352;50.888;4.466;2023-05-18T12:09:25;11.55;;;4.55;;
18445;SDS011;9352;50.888;4.466;2023-05-18T12:11:55;8.25;;;3.95;;
18445;SDS011;9352;50.888;4.466;2023-05-18T12:14:22;11.63;;;4.50;;
18445;SDS011;9352;50.888;4.466;2023-05-18T12:16:50;10.10;;;4.70;;
18445;SDS011;9352;50.888;4.466;2023-05-18T12:19:18;11.20;;;4.15;;
18445;SDS011;9352;50.888;4.466;2023-05-18T12:21:47;9.73;;;4.07;;
18445;SDS011;9352;50.888;4.466;2023-05-18T12:24:14;14.32;;;4.95;;
18445;SDS011;9352;50.888;4.466;2023-05-18T12:26:42;11.40;;;4.50;;
18445;SDS011;9352;50.888;4.466;2023-05-18T12:29:11;11.80;;;4.80;;
18445;SDS011;9352;50.888;4.466;2023-05-18T12:31:43;10.73;;;4.50;;
18445;SDS011;9352;50.888;4.466;2023-05-18T12:34:11;9.57;;;4.72;;
18445;SDS011;9352;50.888;4.466;2023-05-18T12:36:40;10.88;;;4.80;;
18445;SDS011;9352;50.888;4.466;2023-05-18T12:39:08;10.05;;;4.40;;
18445;SDS011;9352;50.888;4.466;2023-05-18T12:41:39;9.50;;;4.15;;
18445;SDS011;9352;50.888;4.466;2023-05-18T12:44:08;11.82;;;4.63;;
18445;SDS011;9352;50.888;4.466;2023-05-18T12:46:35;12.02;;;4.70;;
18445;SDS011;9352;50.888;4.466;2023-05-18T12:49:01;10.65;;;4.38;;
18445;SDS011;9352;50.888;4.466;2023-05-18T12:51:33;11.13;;;4.53;;
18445;SDS011;9352;50.888;4.466;2023-05-18T12:54:01;7.90;;;4.13;;
18445;SDS011;9352;50.888;4.466;2023-05-18T12:59:18;10.35;;;4.18;;
18445;SDS011;9352;50.888;4.466;2023-05-18T13:01:45;11.80;;;4.30;;
18445;SDS011;9352;50.888;4.466;2023-05-18T13:04:13;8.23;;;4.10;;
18445;SDS011;9352;50.888;4.466;2023-05-18T13:06:40;9.30;;;4.30;;
18445;SDS011;9352;50.888;4.466;2023-05-18T13:09:07;8.73;;;4.38;;
18445;SDS011;9352;50.888;4.466;2023-05-18T13:11:37;8.05;;;4.18;;
18445;SDS011;9352;50.888;4.466;2023-05-18T13:14:05;10.23;;;3.80;;
18445;SDS011;9352;50.888;4.466;2023-05-18T13:16:37;7.53;;;3.63;;
18445;SDS011;9352;50.888;4.466;2023-05-18T13:19:09;7.80;;;4.20;;
18445;SDS011;9352;50.888;4.466;2023-05-18T13:21:41;11.68;;;4.53;;
18445;SDS011;9352;50.888;4.466;2023-05-18T13:24:08;9.95;;;4.30;;
18445;SDS011;9352;50.888;4.466;2023-05-18T13:26:34;9.60;;;4.05;;
18445;SDS011;9352;50.888;4.466;2023-05-18T13:29:01;8.20;;;3.95;;
18445;SDS011;9352;50.888;4.466;2023-05-18T13:31:29;11.90;;;4.05;;
18445;SDS011;9352;50.888;4.466;2023-05-18T13:33:57;17.77;;;4.20;;
18445;SDS011;9352;50.888;4.466;2023-05-18T13:36:24;8.30;;;3.70;;
18445;SDS011;9352;50.888;4.466;2023-05-18T13:38:53;13.95;;;3.85;;
18445;SDS011;9352;50.888;4.466;2023-05-18T13:41:20;13.55;;;3.78;;
18445;SDS011;9352;50.888;4.466;2023-05-18T13:43:47;10.65;;;3.83;;
18445;SDS011;9352;50.888;4.466;2023-05-18T13:46:14;7.82;;;3.50;;
18445;SDS011;9352;50.888;4.466;2023-05-18T13:48:41;9.35;;;3.75;;
18445;SDS011;9352;50.888;4.466;2023-05-18T13:51:09;10.90;;;3.95;;
18445;SDS011;9352;50.888;4.466;2023-05-18T13:53:36;10.38;;;4.20;;
18445;SDS011;9352;50.888;4.466;2023-05-18T13:56:03;8.27;;;3.72;;
18445;SDS011;9352;50.888;4.466;2023-05-18T13:58:30;8.15;;;4.03;;
18445;SDS011;9352;50.888;4.466;2023-05-18T14:00:57;9.57;;;3.40;;
18445;SDS011;9352;50.888;4.466;2023-05-18T14:03:27;8.25;;;3.75;;
18445;SDS011;9352;50.888;4.466;2023-05-18T14:05:55;11.45;;;4.15;;
18445;SDS011;9352;50.888;4.466;2023-05-18T14:08:23;8.50;;;3.95;;
18445;SDS011;9352;50.888;4.466;2023-05-18T14:10:50;13.13;;;3.90;;
18445;SDS011;9352;50.888;4.466;2023-05-18T14:13:17;10.52;;;3.97;;
18445;SDS011;9352;50.888;4.466;2023-05-18T14:15:44;9.98;;;4.70;;
18445;SDS011;9352;50.888;4.466;2023-05-18T14:18:10;8.50;;;4.30;;
18445;SDS011;9352;50.888;4.466;2023-05-18T14:20:37;8.15;;;4.13;;
18445;SDS011;9352;50.888;4.466;2023-05-18T14:23:04;11.38;;;4.03;;
18445;SDS011;9352;50.888;4.466;2023-05-18T14:25:32;9.00;;;4.15;;
18445;SDS011;9352;50.888;4.466;2023-05-18T14:27:59;17.55;;;5.97;;
18445;SDS011;9352;50.888;4.466;2023-05-18T14:30:26;12.73;;;5.50;;
18445;SDS011;9352;50.888;4.466;2023-05-18T14:32:53;9.18;;;4.00;;
18445;SDS011;9352;50.888;4.466;2023-05-18T14:35:20;8.77;;;4.43;;
18445;SDS011;9352;50.888;4.466;2023-05-18T14:37:47;11.88;;;4.93;;
18445;SDS011;9352;50.888;4.466;2023-05-18T14:40:14;11.95;;;5.00;;
18445;SDS011;9352;50.888;4.466;2023-05-18T14:42:42;11.52;;;4.30;;
18445;SDS011;9352;50.888;4.466;2023-05-18T14:45:09;7.22;;;3.70;;
18445;SDS011;9352;50.888;4.466;2023-05-18T14:47:36;11.43;;;5.22;;
18445;SDS011;9352;50.888;4.466;2023-05-18T14:50:03;14.57;;;6.13;;
18445;SDS011;9352;50.888;4.466;2023-05-18T14:52:30;10.48;;;4.60;;
18445;SDS011;9352;50.888;4.466;2023-05-18T14:54:57;8.85;;;4.38;;
18445;SDS011;9352;50.888;4.466;2023-05-18T14:57:24;19.23;;;4.60;;
18445;SDS011;9352;50.888;4.466;2023-05-18T14:59:52;10.32;;;4.18;;
18445;SDS011;9352;50.888;4.466;2023-05-18T15:02:19;15.32;;;4.72;;
18445;SDS011;9352;50.888;4.466;2023-05-18T15:04:46;12.48;;;4.18;;
18445;SDS011;9352;50.888;4.466;2023-05-18T15:07:13;12.00;;;4.32;;